createdAt,value
2022-12-31T00:01:10.347Z,100185.94
2022-12-31T00:03:39.311Z,100187.63
2022-12-31T00:06:34.896Z,100187.56
2022-12-31T00:09:06.526Z,100182.34
2022-12-31T00:11:35.522Z,100190.50
2022-12-31T00:14:03.194Z,100182.56
2022-12-31T00:16:36.688Z,100174.59
2022-12-31T00:19:06.984Z,100178.84
2022-12-31T00:21:35.793Z,100184.06
2022-12-31T00:24:05.548Z,100184.91
2022-12-31T00:26:35.074Z,100185.75
2022-12-31T00:29:03.617Z,100183.13
2022-12-31T00:31:37.934Z,100189.19
2022-12-31T00:34:07.174Z,100190.06
2022-12-31T00:36:39.750Z,100188.22
2022-12-31T00:39:08.421Z,100181.13
2022-12-31T00:41:36.168Z,100192.53
2022-12-31T00:44:03.964Z,100183.63
2022-12-31T00:46:31.940Z,100173.06
2022-12-31T00:48:59.568Z,100172.97
2022-12-31T00:51:28.008Z,100180.00
2022-12-31T00:53:57.515Z,100181.69
2022-12-31T00:56:30.411Z,100182.53
2022-12-31T00:58:59.992Z,100167.56
2022-12-31T01:01:35.399Z,100171.91
2022-12-31T01:04:08.999Z,100181.63
2022-12-31T01:06:37.777Z,100174.53
2022-12-31T01:09:06.837Z,100178.97
2022-12-31T01:11:34.802Z,100185.09
2022-12-31T01:14:07.534Z,100188.59
2022-12-31T01:16:51.477Z,100187.75
2022-12-31T01:19:25.400Z,100156.91
2022-12-31T01:21:54.351Z,100156.13
2022-12-31T01:24:22.639Z,100179.88
2022-12-31T01:26:51.338Z,100183.47
2022-12-31T01:29:19.231Z,100160.63
2022-12-31T01:31:46.831Z,100154.56
2022-12-31T01:34:14.287Z,100151.16
2022-12-31T01:36:41.972Z,100153.88
2022-12-31T01:39:11.204Z,100152.22
2022-12-31T01:41:43.297Z,100166.38
2022-12-31T01:44:13.565Z,100162.97
2022-12-31T01:46:51.290Z,100170.88
2022-12-31T01:49:22.623Z,100178.00
2022-12-31T01:51:58.080Z,100180.66
2022-12-31T01:54:28.749Z,100171.94
2022-12-31T01:56:57.343Z,100180.78
2022-12-31T01:59:29.195Z,100176.44
2022-12-31T02:01:57.137Z,100182.63
2022-12-31T02:04:26.870Z,100175.66
2022-12-31T02:07:01.502Z,100193.28
2022-12-31T02:09:31.318Z,100207.41
2022-12-31T02:11:59.094Z,100232.94
2022-12-31T02:14:34.845Z,100265.53
2022-12-31T02:17:11.084Z,100260.41
2022-12-31T02:20:52.125Z,100231.44
2022-12-31T02:23:57.171Z,100180.59
2022-12-31T02:26:54.302Z,100190.28
2022-12-31T02:29:56.934Z,100201.78
2022-12-31T02:32:44.893Z,100199.22
2022-12-31T02:35:28.270Z,100194.78
2022-12-31T02:38:04.924Z,100208.81
2022-12-31T02:40:35.663Z,100215.91
2022-12-31T02:43:03.211Z,100225.59
2022-12-31T02:45:39.393Z,100237.00
2022-12-31T02:48:34.622Z,100231.78
2022-12-31T02:51:21.522Z,100224.81
2022-12-31T02:54:38.214Z,100208.97
2022-12-31T02:57:26.617Z,100218.75
2022-12-31T03:00:21.758Z,100224.94
2022-12-31T03:02:52.704Z,100234.72
2022-12-31T03:05:27.013Z,100242.72
2022-12-31T03:07:54.920Z,100230.38
2022-12-31T03:10:22.461Z,100226.88
2022-12-31T03:12:51.448Z,100223.31
2022-12-31T03:15:23.196Z,100223.25
2022-12-31T03:18:04.337Z,100216.19
2022-12-31T03:20:59.881Z,100217.97
2022-12-31T03:23:32.169Z,100212.75
2022-12-31T03:26:01.435Z,100211.75
2022-12-31T03:28:30.560Z,100202.13
2022-12-31T03:31:02.317Z,100203.84
2022-12-31T03:33:40.761Z,100204.63
2022-12-31T03:36:15.509Z,100197.66
2022-12-31T03:38:43.095Z,100198.56
2022-12-31T03:41:11.765Z,100192.38
2022-12-31T03:43:39.255Z,100193.28
2022-12-31T03:46:06.902Z,100184.44
2022-12-31T03:48:34.523Z,100182.66
2022-12-31T03:51:01.947Z,100180.09
2022-12-31T03:53:29.491Z,100175.75
2022-12-31T03:55:56.906Z,100181.94
2022-12-31T03:58:24.399Z,100179.41
2022-12-31T04:00:51.877Z,100174.13
2022-12-31T04:03:19.638Z,100167.97
2022-12-31T04:05:54.184Z,100181.94
2022-12-31T04:08:23.215Z,100169.69
2022-12-31T04:10:50.768Z,100169.69
2022-12-31T04:13:18.235Z,100164.50
2022-12-31T04:15:45.689Z,100168.84
2022-12-31T04:18:13.343Z,100168.84
2022-12-31T04:20:40.898Z,100163.56
2022-12-31T04:23:08.347Z,100170.53
2022-12-31T04:25:35.848Z,100160.84
2022-12-31T04:28:03.422Z,100162.63
2022-12-31T04:30:30.897Z,100164.41
2022-12-31T04:32:58.431Z,100178.41
2022-12-31T04:35:25.909Z,100184.69
2022-12-31T04:37:53.345Z,100189.97
2022-12-31T04:40:20.902Z,100190.03
2022-12-31T04:42:48.343Z,100190.03
2022-12-31T04:45:15.887Z,100191.88
2022-12-31T04:47:43.510Z,100173.41
2022-12-31T04:50:10.998Z,100177.91
2022-12-31T04:52:42.688Z,100173.63
2022-12-31T04:55:11.247Z,100172.91
2022-12-31T04:57:39.310Z,100166.91
2022-12-31T05:00:08.011Z,100175.84
2022-12-31T05:02:35.735Z,100189.25
2022-12-31T05:05:03.501Z,100184.94
2022-12-31T05:07:30.942Z,100186.72
2022-12-31T05:09:58.455Z,100192.06
2022-12-31T05:12:26.323Z,100192.94
2022-12-31T05:14:54.031Z,100191.09
2022-12-31T05:17:21.708Z,100203.13
2022-12-31T05:19:49.149Z,100203.78
2022-12-31T05:22:28.977Z,100194.63
2022-12-31T05:24:58.605Z,100208.50
2022-12-31T05:27:31.097Z,100208.31
2022-12-31T05:29:59.899Z,100210.06
2022-12-31T05:32:27.543Z,100216.97
2022-12-31T05:34:55.117Z,100196.41
2022-12-31T05:37:22.896Z,100207.47
2022-12-31T05:39:50.605Z,100209.81
2022-12-31T05:42:18.119Z,100213.88
2022-12-31T05:44:45.732Z,100224.16
2022-12-31T05:47:13.365Z,100222.00
2022-12-31T05:49:40.920Z,100234.13
2022-12-31T05:52:08.745Z,100226.03
2022-12-31T05:54:37.211Z,100239.19
2022-12-31T05:57:06.780Z,100244.31
2022-12-31T05:59:34.596Z,100243.38
2022-12-31T06:02:02.279Z,100247.75
2022-12-31T06:04:29.929Z,100243.25
2022-12-31T06:06:57.631Z,100254.66
2022-12-31T06:09:25.170Z,100244.03
2022-12-31T06:11:53.731Z,100242.22
2022-12-31T06:14:21.281Z,100241.19
2022-12-31T06:16:48.722Z,100227.75
2022-12-31T06:19:17.487Z,100233.66
2022-12-31T06:21:44.930Z,100225.50
2022-12-31T06:24:12.659Z,100226.91
2022-12-31T06:26:40.137Z,100237.16
2022-12-31T06:29:07.667Z,100282.72
2022-12-31T06:31:35.194Z,100257.06
2022-12-31T06:34:03.341Z,100240.28
2022-12-31T06:36:30.830Z,100284.41
2022-12-31T06:39:00.061Z,100263.44
2022-12-31T06:41:27.692Z,100251.31
2022-12-31T06:43:55.199Z,100246.03
2022-12-31T06:46:22.781Z,100248.69
2022-12-31T06:48:50.422Z,100246.81
2022-12-31T06:51:21.723Z,100244.88
2022-12-31T06:53:52.084Z,100250.06
2022-12-31T06:56:33.988Z,100248.91
2022-12-31T06:59:05.026Z,100244.16
2022-12-31T07:02:00.488Z,100253.19
2022-12-31T07:05:11.984Z,100242.13
2022-12-31T07:08:10.146Z,100239.09
2022-12-31T07:11:18.801Z,100234.00
2022-12-31T07:14:10.583Z,100237.97
2022-12-31T07:16:47.118Z,100232.88
2022-12-31T07:19:27.771Z,100246.38
2022-12-31T07:21:59.150Z,100239.69
2022-12-31T07:24:27.413Z,100247.22
2022-12-31T07:27:00.742Z,100238.09
2022-12-31T07:29:45.767Z,100245.78
2022-12-31T07:32:59.712Z,100234.00
2022-12-31T07:36:10.524Z,100243.28
2022-12-31T07:39:01.528Z,100242.19
2022-12-31T07:42:00.104Z,100243.72
2022-12-31T07:45:10.421Z,100259.25
2022-12-31T07:47:38.339Z,100260.81
2022-12-31T07:50:15.626Z,100262.19
2022-12-31T07:52:44.895Z,100263.72
2022-12-31T07:55:12.594Z,100257.38
2022-12-31T07:58:09.016Z,100258.84
2022-12-31T08:00:36.774Z,100276.44
2022-12-31T08:03:48.465Z,100266.44
2022-12-31T08:06:44.341Z,100280.53
2022-12-31T08:09:36.661Z,100276.19
2022-12-31T08:12:04.544Z,100257.22
2022-12-31T08:14:40.153Z,100251.25
2022-12-31T08:17:13.735Z,100264.63
2022-12-31T08:19:42.553Z,100263.03
2022-12-31T08:22:28.099Z,100272.00
2022-12-31T08:25:23.630Z,100270.22
2022-12-31T08:28:10.991Z,100287.81
2022-12-31T08:30:57.426Z,100310.63
2022-12-31T08:33:44.440Z,100315.16
2022-12-31T08:36:53.411Z,100316.28
2022-12-31T08:39:39.014Z,100350.63
2022-12-31T08:42:40.115Z,100345.22
2022-12-31T08:45:51.287Z,100360.97
2022-12-31T08:48:26.737Z,100366.06
2022-12-31T08:50:54.783Z,100388.81
2022-12-31T08:53:22.859Z,100386.78
2022-12-31T08:56:01.692Z,100378.56
2022-12-31T08:58:51.014Z,100407.56
2022-12-31T09:01:25.055Z,100405.59
2022-12-31T09:04:21.016Z,100415.00
2022-12-31T09:07:03.339Z,100421.66
2022-12-31T09:09:40.915Z,100429.19
2022-12-31T09:12:51.041Z,100448.84
2022-12-31T09:15:48.861Z,100453.34
2022-12-31T09:18:16.911Z,100444.44
2022-12-31T09:20:45.136Z,100450.44
2022-12-31T09:23:13.654Z,100459.09
2022-12-31T09:26:50.294Z,100457.03
2022-12-31T09:29:41.927Z,100480.81
2022-12-31T09:32:30.298Z,100481.50
2022-12-31T09:35:26.076Z,100475.19
2022-12-31T09:38:21.018Z,100486.75
2022-12-31T09:41:14.450Z,100500.13
2022-12-31T09:44:45.453Z,100496.97
2022-12-31T09:47:57.298Z,100511.25
2022-12-31T09:50:55.615Z,100500.59
2022-12-31T09:54:02.527Z,100508.09
2022-12-31T09:56:47.670Z,100502.31
2022-12-31T09:59:46.003Z,100500.63
2022-12-31T10:02:54.075Z,100510.44
2022-12-31T10:05:45.667Z,100507.03
2022-12-31T10:08:28.231Z,100516.66
2022-12-31T10:11:13.471Z,100507.78
2022-12-31T10:14:09.180Z,100500.63
2022-12-31T10:17:38.101Z,100508.56
2022-12-31T10:20:49.554Z,100515.34
2022-12-31T10:23:44.062Z,100514.41
2022-12-31T10:26:33.355Z,100508.88
2022-12-31T10:29:25.453Z,100508.72
2022-12-31T10:32:29.402Z,100508.53
2022-12-31T10:35:27.604Z,100492.44
2022-12-31T10:38:25.528Z,100498.25
2022-12-31T10:41:46.259Z,100489.03
2022-12-31T10:45:03.170Z,100487.03
2022-12-31T10:47:41.794Z,100477.91
2022-12-31T10:50:49.021Z,100468.06
2022-12-31T10:53:26.091Z,100474.81
2022-12-31T10:56:29.707Z,100490.72
2022-12-31T10:59:47.259Z,100490.56
2022-12-31T11:03:07.073Z,100506.28
2022-12-31T11:06:11.462Z,100506.22
2022-12-31T11:09:32.733Z,100500.59
2022-12-31T11:12:46.373Z,100504.84
2022-12-31T11:15:21.333Z,100498.44
2022-12-31T11:18:15.412Z,100494.69
2022-12-31T11:21:06.936Z,100505.16
2022-12-31T11:23:42.598Z,100504.03
2022-12-31T11:26:30.240Z,100498.44
2022-12-31T11:29:22.651Z,100502.63
2022-12-31T11:32:02.235Z,100519.22
2022-12-31T11:34:38.679Z,100515.34
2022-12-31T11:37:33.563Z,100502.78
2022-12-31T11:40:35.485Z,100521.19
2022-12-31T11:43:20.947Z,100519.22
2022-12-31T11:45:55.878Z,100529.66
2022-12-31T11:48:41.200Z,100520.59
2022-12-31T11:51:49.977Z,100512.56
2022-12-31T11:54:49.661Z,100525.72
2022-12-31T11:57:33.330Z,100519.56
2022-12-31T12:00:26.282Z,100523.84
2022-12-31T12:03:07.236Z,100525.72
2022-12-31T12:05:36.366Z,100526.66
2022-12-31T12:08:06.707Z,100527.44
2022-12-31T12:10:45.704Z,100517.59
2022-12-31T12:13:27.101Z,100526.47
2022-12-31T12:16:03.076Z,100527.44
2022-12-31T12:18:45.725Z,100529.25
2022-12-31T12:21:25.110Z,100521.38
2022-12-31T12:24:03.187Z,100532.13
2022-12-31T12:26:42.118Z,100524.34
2022-12-31T12:29:22.362Z,100528.03
2022-12-31T12:32:27.410Z,100517.50
2022-12-31T12:34:57.234Z,100524.00
2022-12-31T12:37:24.582Z,100522.31
2022-12-31T12:40:06.654Z,100520.50
2022-12-31T12:42:34.162Z,100513.66
2022-12-31T12:45:17.106Z,100519.88
2022-12-31T12:47:49.176Z,100521.00
2022-12-31T12:50:22.054Z,100521.25
2022-12-31T12:53:36.045Z,100517.00
2022-12-31T12:56:52.040Z,100519.16
2022-12-31T13:00:16.829Z,100498.03
2022-12-31T13:03:34.333Z,100514.00
2022-12-31T13:06:13.543Z,100509.50
2022-12-31T13:09:24.148Z,100512.88
2022-12-31T13:12:16.805Z,100515.44
2022-12-31T13:15:16.917Z,100507.22
2022-12-31T13:18:07.831Z,100522.09
2022-12-31T13:21:14.105Z,100529.13
2022-12-31T13:24:02.512Z,100537.88
2022-12-31T13:26:54.099Z,100543.09
2022-12-31T13:29:28.221Z,100530.59
2022-12-31T13:32:01.162Z,100522.53
2022-12-31T13:34:40.216Z,100538.38
2022-12-31T13:37:27.544Z,100523.16
2022-12-31T13:40:19.616Z,100517.00
2022-12-31T13:43:20.594Z,100529.31
2022-12-31T13:46:02.262Z,100515.19
2022-12-31T13:48:38.513Z,100522.31
2022-12-31T13:51:23.004Z,100515.97
2022-12-31T13:54:03.680Z,100516.66
2022-12-31T13:56:38.080Z,100511.25
2022-12-31T13:59:22.366Z,100523.59
2022-12-31T14:02:22.649Z,100511.09
2022-12-31T14:04:58.555Z,100512.72
2022-12-31T14:07:45.189Z,100513.47
2022-12-31T14:10:16.150Z,100511.69
2022-12-31T14:13:34.568Z,100512.56
2022-12-31T14:16:52.697Z,100518.72
2022-12-31T14:19:41.411Z,100522.13
2022-12-31T14:22:37.452Z,100525.56
2022-12-31T14:25:17.129Z,100536.09
2022-12-31T14:27:47.345Z,100528.97
2022-12-31T14:30:30.703Z,100523.47
2022-12-31T14:33:31.142Z,100519.13
2022-12-31T14:36:20.474Z,100528.13
2022-12-31T14:39:10.161Z,100523.84
2022-12-31T14:42:08.685Z,100546.94
2022-12-31T14:45:46.308Z,100555.84
2022-12-31T14:48:42.600Z,100546.28
2022-12-31T14:51:12.397Z,100567.50
2022-12-31T14:53:39.971Z,100575.53
2022-12-31T14:56:53.973Z,100562.19
2022-12-31T14:59:40.636Z,100558.06
2022-12-31T15:02:32.603Z,100563.38
2022-12-31T15:05:11.978Z,100569.53
2022-12-31T15:07:48.482Z,100555.50
2022-12-31T15:10:27.049Z,100578.53
2022-12-31T15:13:45.075Z,100581.19
2022-12-31T15:16:59.116Z,100579.56
2022-12-31T15:20:24.025Z,100569.16
2022-12-31T15:22:53.831Z,100577.31
2022-12-31T15:25:28.561Z,100567.47
2022-12-31T15:28:04.664Z,100571.94
2022-12-31T15:30:40.159Z,100563.19
2022-12-31T15:33:24.634Z,100560.63
2022-12-31T15:35:57.131Z,100567.97
2022-12-31T15:38:39.951Z,100562.66
2022-12-31T15:41:19.306Z,100556.69
2022-12-31T15:43:57.834Z,100564.72
2022-12-31T15:46:37.722Z,100560.44
2022-12-31T15:49:40.413Z,100559.72
2022-12-31T15:52:18.322Z,100567.03
2022-12-31T15:54:50.479Z,100574.22
2022-12-31T15:57:37.311Z,100554.88
2022-12-31T16:00:24.152Z,100556.75
2022-12-31T16:02:55.368Z,100562.25
2022-12-31T16:05:27.770Z,100572.00
2022-12-31T16:07:59.064Z,100563.28
2022-12-31T16:10:32.215Z,100565.03
2022-12-31T16:13:00.333Z,100568.72
2022-12-31T16:15:32.786Z,100560.84
2022-12-31T16:18:06.482Z,100575.19
2022-12-31T16:20:45.315Z,100570.91
2022-12-31T16:23:25.387Z,100563.91
2022-12-31T16:26:01.438Z,100566.63
2022-12-31T16:28:33.458Z,100562.25
2022-12-31T16:31:06.043Z,100557.06
2022-12-31T16:33:34.353Z,100558.06
2022-12-31T16:36:02.252Z,100551.06
2022-12-31T16:38:37.825Z,100551.06
2022-12-31T16:41:19.039Z,100546.78
2022-12-31T16:43:50.752Z,100557.47
2022-12-31T16:46:26.820Z,100546.94
2022-12-31T16:49:00.293Z,100534.63
2022-12-31T16:51:33.931Z,100546.09
2022-12-31T16:54:02.590Z,100549.75
2022-12-31T16:56:38.147Z,100540.00
2022-12-31T16:59:41.306Z,100546.22
2022-12-31T17:02:20.953Z,100536.72
2022-12-31T17:04:56.119Z,100531.53
2022-12-31T17:07:29.791Z,100535.19
2022-12-31T17:10:09.094Z,100537.81
2022-12-31T17:13:25.298Z,100530.97
2022-12-31T17:15:43.202Z,100527.53
2022-12-31T17:18:38.700Z,100537.28
2022-12-31T17:21:09.920Z,100537.47
2022-12-31T17:23:39.858Z,100538.38
2022-12-31T17:26:15.414Z,100548.91
2022-12-31T17:28:49.066Z,100549.94
2022-12-31T17:31:40.965Z,100552.66
2022-12-31T17:34:14.409Z,100549.53
2022-12-31T17:36:57.476Z,100559.28
2022-12-31T17:39:38.637Z,100553.09
2022-12-31T17:42:10.920Z,100537.16
2022-12-31T17:44:43.602Z,100530.06
2022-12-31T17:47:16.251Z,100529.91
2022-12-31T17:49:45.819Z,100534.19
2022-12-31T17:52:15.897Z,100544.78
2022-12-31T17:54:43.346Z,100528.03
2022-12-31T17:57:26.025Z,100533.34
2022-12-31T17:59:54.247Z,100522.88
2022-12-31T18:02:21.789Z,100520.22
2022-12-31T18:04:49.486Z,100528.19
2022-12-31T18:07:16.977Z,100517.59
2022-12-31T18:09:44.401Z,100528.19
2022-12-31T18:12:15.568Z,100532.63
2022-12-31T18:14:45.872Z,100536.22
2022-12-31T18:17:16.528Z,100542.38
2022-12-31T18:20:04.375Z,100550.38
2022-12-31T18:22:31.994Z,100543.38
2022-12-31T18:24:59.420Z,100553.09
2022-12-31T18:27:27.032Z,100540.75
2022-12-31T18:29:59.101Z,100538.09
2022-12-31T18:32:33.018Z,100534.75
2022-12-31T18:35:02.187Z,100530.34
2022-12-31T18:37:36.764Z,100533.19
2022-12-31T18:40:05.300Z,100516.50
2022-12-31T18:42:33.777Z,100524.53
2022-12-31T18:45:01.408Z,100534.28
2022-12-31T18:47:34.351Z,100529.81
2022-12-31T18:50:07.291Z,100527.25
2022-12-31T18:52:35.465Z,100513.16
2022-12-31T18:55:25.438Z,100529.81
2022-12-31T18:57:52.916Z,100527.25
2022-12-31T19:00:20.487Z,100551.19
2022-12-31T19:02:47.930Z,100552.16
2022-12-31T19:05:29.394Z,100543.31
2022-12-31T19:07:57.943Z,100547.75
2022-12-31T19:10:27.645Z,100538.94
2022-12-31T19:12:55.365Z,100552.16
2022-12-31T19:15:33.066Z,100560.09
2022-12-31T19:18:02.507Z,100556.69
2022-12-31T19:20:30.883Z,100561.06
2022-12-31T19:22:58.749Z,100562.91
2022-12-31T19:25:33.796Z,100559.31
2022-12-31T19:28:03.285Z,100574.22
2022-12-31T19:30:34.091Z,100567.06
2022-12-31T19:33:01.596Z,100570.38
2022-12-31T19:35:29.105Z,100573.81
2022-12-31T19:37:57.331Z,100588.91
2022-12-31T19:40:29.076Z,100564.00
2022-12-31T19:42:57.432Z,100565.72
2022-12-31T19:45:29.456Z,100576.16
2022-12-31T19:47:57.196Z,100574.47
2022-12-31T19:50:28.301Z,100565.56
2022-12-31T19:52:58.829Z,100570.06
2022-12-31T19:55:26.405Z,100576.31
2022-12-31T19:57:54.246Z,100584.28
2022-12-31T20:00:22.040Z,100599.13
2022-12-31T20:02:50.066Z,100586.75
2022-12-31T20:05:19.492Z,100576.03
2022-12-31T20:07:47.079Z,100583.97
2022-12-31T20:10:14.737Z,100594.50
2022-12-31T20:12:44.646Z,100590.03
2022-12-31T20:15:12.330Z,100600.63
2022-12-31T20:17:39.801Z,100609.34
2022-12-31T20:20:08.083Z,100596.97
2022-12-31T20:22:35.622Z,100601.41
2022-12-31T20:25:03.652Z,100609.28
2022-12-31T20:27:31.434Z,100599.53
2022-12-31T20:29:59.000Z,100600.41
2022-12-31T20:32:26.437Z,100598.59
2022-12-31T20:34:53.869Z,100613.41
2022-12-31T20:37:22.392Z,100615.84
2022-12-31T20:39:49.873Z,100608.75
2022-12-31T20:42:17.347Z,100609.66
2022-12-31T20:44:44.848Z,100611.63
2022-12-31T20:47:12.355Z,100606.34
2022-12-31T20:50:09.553Z,100615.13
2022-12-31T20:52:27.197Z,100613.31
2022-12-31T20:54:54.690Z,100610.69
2022-12-31T20:57:22.199Z,100614.19
2022-12-31T20:59:49.607Z,100607.19
2022-12-31T21:02:21.571Z,100618.63
2022-12-31T21:04:49.651Z,100603.59
2022-12-31T21:07:17.242Z,100611.53
2022-12-31T21:09:44.709Z,100600.88
2022-12-31T21:12:31.330Z,100607.00
2022-12-31T21:14:58.880Z,100607.78
2022-12-31T21:17:26.303Z,100615.59
2022-12-31T21:19:53.896Z,100612.88
2022-12-31T21:22:21.510Z,100622.44
2022-12-31T21:24:48.952Z,100622.44
2022-12-31T21:27:16.377Z,100620.59
2022-12-31T21:30:16.416Z,100621.28
2022-12-31T21:32:31.298Z,100622.91
2022-12-31T21:35:31.462Z,100625.41
2022-12-31T21:37:58.351Z,100614.81
2022-12-31T21:40:30.300Z,100629.72
2022-12-31T21:42:58.550Z,100639.28
2022-12-31T21:45:26.156Z,100638.13
2022-12-31T21:48:12.128Z,100633.66
2022-12-31T21:50:39.509Z,100644.88
2022-12-31T21:53:06.954Z,100642.00
2022-12-31T21:55:57.289Z,100654.25
2022-12-31T21:58:27.070Z,100655.94
2022-12-31T22:01:16.025Z,100649.66
2022-12-31T22:03:44.495Z,100643.56
2022-12-31T22:06:21.077Z,100639.13
2022-12-31T22:08:54.977Z,100649.00
2022-12-31T22:11:26.862Z,100650.88
2022-12-31T22:13:55.366Z,100654.56
2022-12-31T22:16:23.350Z,100659.94
2022-12-31T22:18:50.875Z,100667.94
2022-12-31T22:21:21.629Z,100661.88
2022-12-31T22:23:52.299Z,100670.91
2022-12-31T22:26:26.954Z,100675.38
2022-12-31T22:28:59.090Z,100671.09
2022-12-31T22:31:30.441Z,100671.16
2022-12-31T22:33:59.467Z,100673.09
2022-12-31T22:36:27.100Z,100673.09
2022-12-31T22:38:58.861Z,100679.34
2022-12-31T22:41:27.864Z,100678.56
2022-12-31T22:44:03.791Z,100697.25
2022-12-31T22:46:33.464Z,100676.06
2022-12-31T22:49:04.177Z,100673.41
2022-12-31T22:51:57.470Z,100683.94
2022-12-31T22:54:20.320Z,100689.09
2022-12-31T22:56:47.863Z,100692.66
2022-12-31T22:59:15.305Z,100694.47
2022-12-31T23:01:42.802Z,100698.97
2022-12-31T23:04:10.404Z,100702.53
2022-12-31T23:06:43.572Z,100698.97
2022-12-31T23:09:39.714Z,100701.63
2022-12-31T23:12:09.785Z,100713.16
2022-12-31T23:14:56.347Z,100725.47
2022-12-31T23:17:45.620Z,100721.88
2022-12-31T23:20:36.735Z,100718.13
2022-12-31T23:23:07.689Z,100722.44
2022-12-31T23:25:42.775Z,100730.41
2022-12-31T23:28:25.559Z,100720.47
2022-12-31T23:30:53.886Z,100709.03
2022-12-31T23:33:25.762Z,100711.53
2022-12-31T23:36:06.824Z,100711.44
2022-12-31T23:38:34.302Z,100709.75
2022-12-31T23:41:15.720Z,100725.47
2022-12-31T23:43:43.956Z,100714.88
2022-12-31T23:46:12.659Z,100733.44
2022-12-31T23:48:40.416Z,100726.34
2022-12-31T23:51:08.236Z,100726.34
2022-12-31T23:53:38.703Z,100727.91
2022-12-31T23:56:20.956Z,100726.13
2022-12-31T23:58:58.186Z,100727.91
